Time;durP1;ratioP1;P1;durP2;ratioP2;P2;SDS_P1;SDS_P2;PMS_P1;PMS_P2;Temp;Humidity;BMP_temperature;BMP_pressure;BME280_temperature;BME280_humidity;BME280_pressure;Samples;Min_cycle;Max_cycle;Signal;HPM_P1;HPM_P2
2021/12/08 00:00:14;;;;;;;10.75;3.92;;;;;;;;;;5109666;28;20043;-78
2021/12/08 00:02:40;;;;;;;9.73;4.38;;;;;;;;;;5109742;28;20047;-79
2021/12/08 00:05:07;;;;;;;11.93;3.80;;;;;;;;;;5110671;28;20051;-82
2021/12/08 00:07:34;;;;;;;11.90;3.72;;;;;;;;;;5110979;28;20395;-80
2021/12/08 00:11:02;;;;;;;13.02;3.75;;;;;;;;;;5109658;28;20042;-80
2021/12/08 00:13:06;;;;;;;7.47;3.15;;;;;;;;;;5101773;28;20043;-83
2021/12/08 00:15:35;;;;;;;13.95;4.22;;;;;;;;;;5109760;28;20047;-82
2021/12/08 00:18:01;;;;;;;11.93;3.67;;;;;;;;;;5110500;28;20066;-80
2021/12/08 00:20:31;;;;;;;11.05;3.72;;;;;;;;;;5109759;28;20055;-84
2021/12/08 00:22:57;;;;;;;18.50;4.35;;;;;;;;;;5110363;28;20048;-83
2021/12/08 00:25:23;;;;;;;9.57;3.85;;;;;;;;;;5109932;28;20049;-84
2021/12/08 00:27:50;;;;;;;9.40;3.85;;;;;;;;;;5109568;28;20048;-78
2021/12/08 00:30:16;;;;;;;10.57;3.80;;;;;;;;;;5092555;28;20483;-80
2021/12/08 00:32:43;;;;;;;9.63;4.05;;;;;;;;;;5093589;28;20100;-84
2021/12/08 00:35:09;;;;;;;8.50;4.25;;;;;;;;;;5093384;28;20047;-85
2021/12/08 00:37:36;;;;;;;12.05;4.40;;;;;;;;;;5110467;28;20044;-77
2021/12/08 00:40:03;;;;;;;11.00;4.40;;;;;;;;;;5092557;28;20407;-79
2021/12/08 00:42:29;;;;;;;13.95;4.43;;;;;;;;;;5108496;28;20039;-76
2021/12/08 00:44:56;;;;;;;12.45;3.83;;;;;;;;;;5092546;28;20047;-84
2021/12/08 00:47:22;;;;;;;9.60;4.55;;;;;;;;;;5109277;28;20047;-82
2021/12/08 00:49:48;;;;;;;13.60;4.65;;;;;;;;;;5092604;28;20046;-83
2021/12/08 00:52:14;;;;;;;10.30;4.28;;;;;;;;;;5109588;28;20119;-83
2021/12/08 00:54:41;;;;;;;20.85;4.90;;;;;;;;;;5109758;28;20035;-86
2021/12/08 00:57:07;;;;;;;8.18;4.63;;;;;;;;;;5109264;28;20111;-81
2021/12/08 00:59:33;;;;;;;10.85;4.47;;;;;;;;;;5109982;28;20586;-84
2021/12/08 01:02:02;;;;;;;13.48;5.22;;;;;;;;;;5109716;28;20046;-84
2021/12/08 01:04:35;;;;;;;9.48;5.45;;;;;;;;;;5108888;28;20429;-86
2021/12/08 01:07:01;;;;;;;11.38;5.32;;;;;;;;;;5111971;28;20047;-85
2021/12/08 01:09:28;;;;;;;9.23;5.22;;;;;;;;;;5090924;28;20051;-77
2021/12/08 01:11:57;;;;;;;10.75;5.93;;;;;;;;;;5091852;28;20039;-78
2021/12/08 01:14:23;;;;;;;11.90;5.90;;;;;;;;;;5104171;28;20108;-77
2021/12/08 01:16:51;;;;;;;13.35;5.88;;;;;;;;;;5088628;28;20043;-77
2021/12/08 01:19:17;;;;;;;12.40;5.55;;;;;;;;;;5070401;28;20060;-78
2021/12/08 01:21:43;;;;;;;9.85;5.85;;;;;;;;;;5088698;28;20048;-78
2021/12/08 01:24:10;;;;;;;12.07;5.70;;;;;;;;;;5088258;28;20122;-78
2021/12/08 01:26:36;;;;;;;14.73;6.70;;;;;;;;;;5071153;28;20050;-76
2021/12/08 01:29:03;;;;;;;11.25;6.18;;;;;;;;;;5088046;28;20043;-77
2021/12/08 01:31:29;;;;;;;11.73;6.47;;;;;;;;;;5107917;28;20036;-78
2021/12/08 01:33:55;;;;;;;21.85;7.47;;;;;;;;;;5108956;28;20044;-78
2021/12/08 01:36:22;;;;;;;17.20;6.82;;;;;;;;;;5091437;28;20075;-76
2021/12/08 01:38:48;;;;;;;11.75;5.32;;;;;;;;;;5108768;28;20067;-78
2021/12/08 01:41:14;;;;;;;14.10;6.10;;;;;;;;;;5107865;28;20039;-85
2021/12/08 01:43:43;;;;;;;13.30;6.85;;;;;;;;;;5109539;28;20574;-86
2021/12/08 01:46:14;;;;;;;13.45;7.00;;;;;;;;;;5109090;28;20051;-85
2021/12/08 01:48:41;;;;;;;19.27;6.65;;;;;;;;;;5109332;28;20483;-85
2021/12/08 01:51:10;;;;;;;9.20;5.28;;;;;;;;;;5108948;28;20039;-81
2021/12/08 01:53:37;;;;;;;11.95;6.97;;;;;;;;;;5110134;28;20498;-85
2021/12/08 01:56:03;;;;;;;14.43;7.45;;;;;;;;;;5109686;28;20074;-85
2021/12/08 01:58:29;;;;;;;14.98;7.38;;;;;;;;;;5092804;28;20048;-85
2021/12/08 02:01:00;;;;;;;14.95;6.93;;;;;;;;;;5108686;28;20383;-85
2021/12/08 02:03:27;;;;;;;15.23;7.53;;;;;;;;;;5108979;28;20471;-85
2021/12/08 02:05:54;;;;;;;14.82;7.50;;;;;;;;;;5109265;28;20131;-84
2021/12/08 02:08:21;;;;;;;13.57;7.53;;;;;;;;;;5110474;28;20550;-85
2021/12/08 02:10:47;;;;;;;18.80;8.02;;;;;;;;;;5093627;28;20125;-85
2021/12/08 02:13:14;;;;;;;10.85;6.55;;;;;;;;;;5108995;28;20100;-85
2021/12/08 02:15:40;;;;;;;12.38;7.38;;;;;;;;;;5110333;28;20039;-76
2021/12/08 02:18:08;;;;;;;14.63;7.93;;;;;;;;;;5111636;28;20052;-76
2021/12/08 02:20:36;;;;;;;14.48;8.40;;;;;;;;;;5111250;28;20475;-76
2021/12/08 02:23:02;;;;;;;13.50;7.68;;;;;;;;;;5112084;28;20509;-77
2021/12/08 02:25:28;;;;;;;14.25;8.32;;;;;;;;;;5111640;28;20062;-77
2021/12/08 02:27:56;;;;;;;16.40;9.40;;;;;;;;;;5094872;28;20035;-77
2021/12/08 02:47:03;;;;;;;20.33;9.13;;;;;;;;;;5111440;28;20487;-84
2021/12/08 02:49:29;;;;;;;15.68;8.73;;;;;;;;;;5094439;28;20044;-84
2021/12/08 02:51:55;;;;;;;15.82;9.85;;;;;;;;;;5112960;28;20527;-85
2021/12/08 02:54:22;;;;;;;20.42;10.85;;;;;;;;;;5111431;28;20051;-76
2021/12/08 02:56:48;;;;;;;16.80;9.25;;;;;;;;;;5111776;28;20497;-85
2021/12/08 02:59:14;;;;;;;19.83;9.15;;;;;;;;;;5112599;28;20039;-77
2021/12/08 03:01:41;;;;;;;16.25;10.02;;;;;;;;;;5107536;28;20039;-77
2021/12/08 03:04:08;;;;;;;20.48;11.30;;;;;;;;;;5110479;28;20126;-77
2021/12/08 03:06:35;;;;;;;16.95;9.27;;;;;;;;;;5110155;28;20047;-76
2021/12/08 03:09:01;;;;;;;17.52;10.38;;;;;;;;;;5110987;28;20062;-78
2021/12/08 03:11:27;;;;;;;19.17;10.13;;;;;;;;;;5110471;28;20375;-75
2021/12/08 03:13:59;;;;;;;20.50;9.60;;;;;;;;;;5111034;28;20043;-84
2021/12/08 03:16:26;;;;;;;17.13;10.30;;;;;;;;;;5111322;28;20038;-77
2021/12/08 03:18:52;;;;;;;16.98;10.02;;;;;;;;;;5076676;28;20064;-83
2021/12/08 03:21:20;;;;;;;19.70;10.70;;;;;;;;;;5093762;28;20480;-84
2021/12/08 03:24:25;;;;;;;19.25;9.93;;;;;;;;;;5110917;28;20123;-84
2021/12/08 03:32:11;;;;;;;17.80;11.43;;;;;;;;;;5110867;28;20047;-84
2021/12/08 03:34:40;;;;;;;18.67;11.13;;;;;;;;;;5110375;28;20047;-83
2021/12/08 03:37:07;;;;;;;23.30;10.93;;;;;;;;;;5110647;28;20399;-84
2021/12/08 03:39:33;;;;;;;20.27;11.98;;;;;;;;;;5093011;28;20046;-83
2021/12/08 03:42:00;;;;;;;23.05;12.50;;;;;;;;;;5110900;28;20031;-84
2021/12/08 03:44:26;;;;;;;22.55;11.65;;;;;;;;;;5127286;27;20526;-83
2021/12/08 03:47:02;;;;;;;22.27;12.20;;;;;;;;;;5076368;28;20039;-84
2021/12/08 03:49:28;;;;;;;28.40;12.90;;;;;;;;;;5110293;28;20504;-83
2021/12/08 03:52:02;;;;;;;17.55;10.18;;;;;;;;;;5109936;28;20088;-83
2021/12/08 03:54:28;;;;;;;20.63;10.98;;;;;;;;;;5110188;28;20040;-84
2021/12/08 03:56:54;;;;;;;19.60;11.93;;;;;;;;;;5092812;28;20032;-77
2021/12/08 03:59:20;;;;;;;20.38;12.05;;;;;;;;;;5109386;28;20100;-83
2021/12/08 04:01:46;;;;;;;20.92;12.63;;;;;;;;;;5109763;28;20126;-83
2021/12/08 04:04:13;;;;;;;25.67;11.98;;;;;;;;;;5109503;28;20042;-83
2021/12/08 04:06:52;;;;;;;22.17;12.73;;;;;;;;;;5109658;28;20052;-83
2021/12/08 04:09:28;;;;;;;25.63;11.82;;;;;;;;;;5109467;28;20513;-83
2021/12/08 04:11:54;;;;;;;22.83;12.13;;;;;;;;;;5092615;28;20050;-83
2021/12/08 04:14:23;;;;;;;19.63;11.90;;;;;;;;;;5109367;28;20039;-82
2021/12/08 04:16:58;;;;;;;19.05;11.50;;;;;;;;;;5109305;28;20127;-83
2021/12/08 04:19:26;;;;;;;21.02;11.32;;;;;;;;;;5109116;28;20088;-83
2021/12/08 04:21:54;;;;;;;22.42;11.77;;;;;;;;;;5092141;28;20143;-83
2021/12/08 04:24:20;;;;;;;22.17;10.90;;;;;;;;;;5108929;28;20391;-83
2021/12/08 04:26:52;;;;;;;17.23;10.77;;;;;;;;;;5110553;28;20043;-83
2021/12/08 04:29:23;;;;;;;18.02;11.07;;;;;;;;;;5108777;28;20395;-83
2021/12/08 04:31:50;;;;;;;20.70;11.27;;;;;;;;;;5092013;28;20042;-83
2021/12/08 04:34:19;;;;;;;20.13;11.45;;;;;;;;;;5109218;28;20047;-82
2021/12/08 04:36:48;;;;;;;21.30;10.80;;;;;;;;;;5110021;28;20398;-83
2021/12/08 04:39:26;;;;;;;22.00;10.25;;;;;;;;;;5109420;28;20043;-82
2021/12/08 04:42:00;;;;;;;19.67;11.02;;;;;;;;;;5092675;28;20407;-84
2021/12/08 04:44:37;;;;;;;20.00;10.32;;;;;;;;;;5109354;28;20055;-83
2021/12/08 05:00:44;;;;;;;23.38;10.80;;;;;;;;;;5109459;28;20043;-77
2021/12/08 05:08:46;;;;;;;18.20;9.35;;;;;;;;;;5049617;28;20056;-83
2021/12/08 05:11:13;;;;;;;18.23;9.57;;;;;;;;;;5034107;28;20521;-83
2021/12/08 05:13:39;;;;;;;20.00;10.00;;;;;;;;;;5060107;28;20049;-83
2021/12/08 05:16:06;;;;;;;17.13;9.68;;;;;;;;;;5091706;28;20085;-83
2021/12/08 05:18:36;;;;;;;24.13;9.75;;;;;;;;;;5108384;28;20047;-82
2021/12/08 05:21:05;;;;;;;18.92;10.05;;;;;;;;;;5108874;28;20047;-83
2021/12/08 05:23:35;;;;;;;18.55;8.68;;;;;;;;;;5109020;28;20051;-77
2021/12/08 05:26:05;;;;;;;17.85;9.13;;;;;;;;;;5108858;28;20074;-77
2021/12/08 05:28:31;;;;;;;19.80;8.93;;;;;;;;;;5108276;28;20066;-83
2021/12/08 05:31:09;;;;;;;16.98;8.48;;;;;;;;;;5108418;28;20096;-77
2021/12/08 05:33:35;;;;;;;17.90;8.20;;;;;;;;;;5108083;28;20047;-77
2021/12/08 05:36:02;;;;;;;17.60;8.88;;;;;;;;;;5108416;28;20046;-77
2021/12/08 05:38:29;;;;;;;17.20;7.90;;;;;;;;;;5091667;28;20079;-83
2021/12/08 05:41:00;;;;;;;16.30;8.27;;;;;;;;;;5108230;28;20130;-77
2021/12/08 05:43:27;;;;;;;14.23;7.60;;;;;;;;;;5108070;28;20053;-83
2021/12/08 05:45:53;;;;;;;19.35;8.15;;;;;;;;;;5108496;28;20387;-83
2021/12/08 05:48:20;;;;;;;16.73;7.25;;;;;;;;;;5108307;28;20114;-83
2021/12/08 05:50:51;;;;;;;18.08;7.38;;;;;;;;;;5092059;28;20437;-83
2021/12/08 05:53:18;;;;;;;14.30;7.10;;;;;;;;;;5095675;28;20502;-77
2021/12/08 05:55:45;;;;;;;16.23;7.85;;;;;;;;;;5095060;28;20074;-83
2021/12/08 05:58:11;;;;;;;15.82;7.47;;;;;;;;;;5095242;28;20047;-77
2021/12/08 06:00:44;;;;;;;16.10;7.38;;;;;;;;;;5094668;28;20044;-77
2021/12/08 06:03:11;;;;;;;13.27;5.93;;;;;;;;;;5095392;28;20043;-83
2021/12/08 06:05:37;;;;;;;16.08;7.30;;;;;;;;;;5112305;28;20471;-76
2021/12/08 06:08:04;;;;;;;21.73;7.20;;;;;;;;;;5111834;28;20123;-81
2021/12/08 06:10:32;;;;;;;12.00;6.10;;;;;;;;;;5111640;28;20043;-77
2021/12/08 06:12:59;;;;;;;16.25;6.22;;;;;;;;;;5094658;28;20043;-76
2021/12/08 06:15:25;;;;;;;15.60;6.38;;;;;;;;;;5111729;28;20036;-76
2021/12/08 06:17:51;;;;;;;15.13;6.32;;;;;;;;;;5111944;28;20055;-76
2021/12/08 06:20:18;;;;;;;14.85;6.18;;;;;;;;;;5095035;28;20055;-83
2021/12/08 06:22:46;;;;;;;16.48;6.38;;;;;;;;;;5111758;28;20517;-83
2021/12/08 06:25:13;;;;;;;13.75;5.55;;;;;;;;;;5112008;28;20085;-83
2021/12/08 06:27:40;;;;;;;14.10;5.55;;;;;;;;;;5094306;28;20555;-83
2021/12/08 06:30:07;;;;;;;13.00;6.05;;;;;;;;;;5111585;28;20056;-82
2021/12/08 06:32:33;;;;;;;12.27;5.45;;;;;;;;;;5094741;28;20394;-83
2021/12/08 06:35:00;;;;;;;14.60;5.63;;;;;;;;;;5111675;28;20039;-83
2021/12/08 06:37:28;;;;;;;13.77;5.38;;;;;;;;;;5111553;28;20479;-83
2021/12/08 06:40:10;;;;;;;16.23;6.40;;;;;;;;;;5111701;28;20250;-83
2021/12/08 06:42:37;;;;;;;9.63;4.55;;;;;;;;;;5111020;28;20097;-82
2021/12/08 06:45:06;;;;;;;11.65;5.30;;;;;;;;;;5094679;28;20036;-82
2021/12/08 06:47:32;;;;;;;11.85;5.00;;;;;;;;;;5110925;28;20098;-83
2021/12/08 06:49:59;;;;;;;11.20;4.70;;;;;;;;;;5111213;28;20039;-84
2021/12/08 06:52:29;;;;;;;14.80;5.43;;;;;;;;;;5110875;28;20078;-82
2021/12/08 06:55:00;;;;;;;13.20;4.30;;;;;;;;;;5111311;28;20039;-83
2021/12/08 06:57:34;;;;;;;13.57;4.40;;;;;;;;;;5094065;28;20126;-83
2021/12/08 07:00:15;;;;;;;11.38;4.35;;;;;;;;;;5110874;28;20123;-82
2021/12/08 07:05:28;;;;;;;9.50;4.13;;;;;;;;;;5110706;28;20039;-83
2021/12/08 07:07:57;;;;;;;11.82;3.80;;;;;;;;;;5111141;28;20043;-84
2021/12/08 07:10:27;;;;;;;9.18;4.18;;;;;;;;;;5110375;28;20040;-83
2021/12/08 07:12:56;;;;;;;11.73;3.65;;;;;;;;;;5110827;28;20039;-83
2021/12/08 07:15:27;;;;;;;9.57;3.78;;;;;;;;;;5093116;28;20049;-82
2021/12/08 07:17:56;;;;;;;5.88;3.08;;;;;;;;;;5110956;28;20075;-83
2021/12/08 07:22:55;;;;;;;6.13;3.33;;;;;;;;;;5110746;28;20130;-83
2021/12/08 07:25:24;;;;;;;7.95;2.97;;;;;;;;;;5110566;28;20047;-76
2021/12/08 07:27:50;;;;;;;7.82;3.30;;;;;;;;;;5093571;28;20040;-76
2021/12/08 07:30:28;;;;;;;7.95;2.45;;;;;;;;;;5110376;28;20494;-76
2021/12/08 07:32:54;;;;;;;8.93;3.08;;;;;;;;;;5110736;28;20522;-77
2021/12/08 07:35:22;;;;;;;8.73;2.72;;;;;;;;;;5110278;28;20071;-83
2021/12/08 07:37:49;;;;;;;10.88;3.20;;;;;;;;;;5110520;28;20138;-82
2021/12/08 07:40:22;;;;;;;9.93;2.70;;;;;;;;;;5093401;28;20043;-83
2021/12/08 07:42:50;;;;;;;9.27;2.42;;;;;;;;;;5093265;28;20044;-83
2021/12/08 07:45:19;;;;;;;4.78;1.83;;;;;;;;;;5110012;28;20058;-82
2021/12/08 07:47:45;;;;;;;9.63;3.00;;;;;;;;;;5110033;28;20051;-83
2021/12/08 07:50:24;;;;;;;7.20;2.38;;;;;;;;;;5110194;28;20078;-76
2021/12/08 07:52:52;;;;;;;9.00;2.97;;;;;;;;;;5093175;28;20088;-83
2021/12/08 07:55:25;;;;;;;8.18;2.95;;;;;;;;;;5109930;28;20123;-76
2021/12/08 07:57:51;;;;;;;12.00;2.53;;;;;;;;;;5109701;28;20055;-82
2021/12/08 08:00:23;;;;;;;7.43;1.98;;;;;;;;;;5092961;28;20078;-82
2021/12/08 08:02:50;;;;;;;9.55;2.53;;;;;;;;;;5109986;28;20103;-83
2021/12/08 08:05:17;;;;;;;9.57;2.38;;;;;;;;;;5109894;28;20078;-76
2021/12/08 08:07:44;;;;;;;7.97;2.20;;;;;;;;;;5109684;28;20054;-76
2021/12/08 08:10:15;;;;;;;9.00;2.28;;;;;;;;;;5092961;28;20047;-77
2021/12/08 08:12:42;;;;;;;8.30;2.10;;;;;;;;;;5109339;28;20036;-76
2021/12/08 08:15:12;;;;;;;10.02;2.67;;;;;;;;;;5109585;28;20036;-82
2021/12/08 08:17:44;;;;;;;12.88;1.90;;;;;;;;;;5092530;28;20042;-82
2021/12/08 08:20:17;;;;;;;12.13;2.20;;;;;;;;;;5110948;28;20055;-77
2021/12/08 08:22:43;;;;;;;9.50;2.58;;;;;;;;;;5109323;28;20506;-82
2021/12/08 08:25:11;;;;;;;7.70;1.73;;;;;;;;;;5109869;28;20040;-82
2021/12/08 08:27:37;;;;;;;8.43;1.60;;;;;;;;;;5108746;28;20040;-77
2021/12/08 08:30:08;;;;;;;6.30;1.67;;;;;;;;;;5109271;28;20083;-82
2021/12/08 08:32:36;;;;;;;8.93;2.20;;;;;;;;;;5092025;28;20039;-82
2021/12/08 08:35:38;;;;;;;9.43;1.60;;;;;;;;;;5109336;28;20043;-82
2021/12/08 08:38:04;;;;;;;9.60;1.80;;;;;;;;;;5030999;28;20114;-77
2021/12/08 08:40:33;;;;;;;8.57;2.03;;;;;;;;;;5092651;28;20502;-76
2021/12/08 08:43:01;;;;;;;6.80;1.90;;;;;;;;;;5092102;28;20075;-77
2021/12/08 08:45:51;;;;;;;8.93;1.83;;;;;;;;;;5108736;28;20413;-77
2021/12/08 08:48:20;;;;;;;9.60;2.10;;;;;;;;;;5108894;28;20082;-76
2021/12/08 08:50:55;;;;;;;6.22;1.88;;;;;;;;;;5091959;28;20050;-82
2021/12/08 08:53:22;;;;;;;8.32;1.75;;;;;;;;;;5108759;28;20108;-78
2021/12/08 08:55:50;;;;;;;7.97;1.70;;;;;;;;;;5108760;28;20046;-76
2021/12/08 08:58:17;;;;;;;6.40;1.50;;;;;;;;;;5109191;28;20051;-82
2021/12/08 09:00:45;;;;;;;6.25;2.08;;;;;;;;;;5108841;28;20390;-83
2021/12/08 09:03:13;;;;;;;10.00;2.03;;;;;;;;;;5108992;28;20040;-82
2021/12/08 09:05:43;;;;;;;6.28;2.03;;;;;;;;;;5109344;28;20398;-83
2021/12/08 09:08:10;;;;;;;9.48;1.77;;;;;;;;;;5108737;28;20551;-76
2021/12/08 09:10:40;;;;;;;10.75;2.00;;;;;;;;;;5108248;28;20040;-77
2021/12/08 09:13:08;;;;;;;6.78;1.67;;;;;;;;;;5092106;28;20047;-83
2021/12/08 09:15:37;;;;;;;9.85;2.40;;;;;;;;;;5108215;28;20122;-82
2021/12/08 09:18:15;;;;;;;11.63;2.22;;;;;;;;;;5108718;28;20047;-77
2021/12/08 09:20:55;;;;;;;9.82;2.10;;;;;;;;;;5091573;28;20421;-83
2021/12/08 09:23:27;;;;;;;8.73;2.42;;;;;;;;;;5108928;28;20043;-77
2021/12/08 09:25:56;;;;;;;11.70;3.10;;;;;;;;;;5108226;28;20050;-78
2021/12/08 09:28:26;;;;;;;12.00;2.30;;;;;;;;;;5108836;28;20048;-76
2021/12/08 09:31:02;;;;;;;10.05;2.50;;;;;;;;;;5109076;28;20055;-82
2021/12/08 09:33:36;;;;;;;12.15;2.45;;;;;;;;;;5092030;28;20487;-77
2021/12/08 09:36:06;;;;;;;9.68;2.42;;;;;;;;;;5109312;28;20047;-77
2021/12/08 09:38:38;;;;;;;12.02;2.42;;;;;;;;;;5108363;28;20058;-76
2021/12/08 09:41:11;;;;;;;11.13;2.70;;;;;;;;;;5092047;28;20047;-77
2021/12/08 09:43:40;;;;;;;9.25;2.28;;;;;;;;;;5091148;28;20104;-82
2021/12/08 09:46:13;;;;;;;8.82;2.13;;;;;;;;;;5109466;28;20040;-82
2021/12/08 09:48:40;;;;;;;11.98;2.58;;;;;;;;;;5108322;28;20134;-78
2021/12/08 09:51:06;;;;;;;10.50;2.22;;;;;;;;;;5108548;28;20048;-77
2021/12/08 09:53:34;;;;;;;9.68;2.47;;;;;;;;;;5090763;28;20063;-77
2021/12/08 09:56:01;;;;;;;8.40;2.60;;;;;;;;;;5091289;28;20168;-77
2021/12/08 09:58:27;;;;;;;12.07;3.15;;;;;;;;;;5091415;28;20127;-84
2021/12/08 10:00:59;;;;;;;12.32;3.10;;;;;;;;;;5091334;28;20048;-83
2021/12/08 10:03:25;;;;;;;12.20;2.72;;;;;;;;;;5091049;28;20108;-83
2021/12/08 10:05:52;;;;;;;12.50;2.42;;;;;;;;;;5091417;28;20510;-83
2021/12/08 10:08:18;;;;;;;8.65;2.15;;;;;;;;;;5108480;28;20048;-83
2021/12/08 10:10:45;;;;;;;8.85;2.05;;;;;;;;;;5107838;28;20058;-82
2021/12/08 10:13:13;;;;;;;10.43;1.70;;;;;;;;;;5108199;28;20051;-82
2021/12/08 10:15:39;;;;;;;9.43;1.98;;;;;;;;;;5090389;28;20092;-83
2021/12/08 10:18:08;;;;;;;8.00;1.67;;;;;;;;;;5107884;28;20065;-78
2021/12/08 10:20:45;;;;;;;5.78;1.38;;;;;;;;;;5107419;28;20067;-78
2021/12/08 10:23:14;;;;;;;6.60;1.73;;;;;;;;;;5091202;28;20047;-84
2021/12/08 10:25:43;;;;;;;7.30;1.67;;;;;;;;;;5107682;28;20417;-82
2021/12/08 10:28:11;;;;;;;7.15;1.50;;;;;;;;;;5107682;28;20105;-84
2021/12/08 10:30:46;;;;;;;6.75;1.52;;;;;;;;;;5107371;28;20044;-83
2021/12/08 10:39:01;;;;;;;5.70;1.42;;;;;;;;;;5111293;28;20051;-82
2021/12/08 10:41:42;;;;;;;6.25;1.30;;;;;;;;;;5112474;27;20081;-82
2021/12/08 10:44:08;;;;;;;6.75;1.60;;;;;;;;;;5111551;28;20035;-82
2021/12/08 10:46:37;;;;;;;6.18;1.45;;;;;;;;;;5094066;28;20390;-82
2021/12/08 10:49:26;;;;;;;6.18;1.63;;;;;;;;;;5111311;28;20090;-82
2021/12/08 10:54:37;;;;;;;7.20;1.52;;;;;;;;;;5110680;28;20425;-82
2021/12/08 10:57:22;;;;;;;7.20;1.50;;;;;;;;;;5094320;28;20489;-77
2021/12/08 11:00:00;;;;;;;7.32;1.83;;;;;;;;;;5111131;28;20074;-78
2021/12/08 11:02:45;;;;;;;6.55;1.50;;;;;;;;;;5110977;28;20109;-82
2021/12/08 11:05:29;;;;;;;8.20;1.55;;;;;;;;;;5094328;28;20402;-82
2021/12/08 11:07:59;;;;;;;5.75;1.60;;;;;;;;;;5110800;28;20055;-83
2021/12/08 11:10:25;;;;;;;9.02;1.75;;;;;;;;;;5111406;28;20043;-77
2021/12/08 11:12:54;;;;;;;9.32;2.15;;;;;;;;;;5110908;28;20042;-77
2021/12/08 11:15:24;;;;;;;8.15;1.80;;;;;;;;;;5110748;28;20180;-77
2021/12/08 11:18:30;;;;;;;9.10;1.67;;;;;;;;;;5093390;28;20051;-78
2021/12/08 11:21:02;;;;;;;10.70;2.30;;;;;;;;;;5032293;28;20390;-78
2021/12/08 11:23:46;;;;;;;9.88;2.00;;;;;;;;;;5099506;28;20058;-77
2021/12/08 11:26:15;;;;;;;6.72;1.77;;;;;;;;;;5110586;28;20047;-77
2021/12/08 11:28:42;;;;;;;7.53;1.90;;;;;;;;;;5093016;28;20167;-78
2021/12/08 11:31:08;;;;;;;8.18;2.30;;;;;;;;;;5110526;28;20070;-77
2021/12/08 11:33:37;;;;;;;7.70;2.03;;;;;;;;;;5110375;28;20604;-77
2021/12/08 11:36:08;;;;;;;9.35;2.10;;;;;;;;;;5110086;28;20100;-77
2021/12/08 11:38:34;;;;;;;8.20;2.00;;;;;;;;;;5110168;28;20079;-77
2021/12/08 11:41:00;;;;;;;9.32;2.17;;;;;;;;;;5110159;28;20054;-78
2021/12/08 11:43:30;;;;;;;6.45;1.88;;;;;;;;;;5110655;28;20044;-78
2021/12/08 11:46:16;;;;;;;9.20;2.22;;;;;;;;;;5110503;28;20399;-77
2021/12/08 11:48:59;;;;;;;7.18;2.20;;;;;;;;;;5092048;28;20047;-78
2021/12/08 11:51:25;;;;;;;11.98;2.33;;;;;;;;;;5110037;28;20048;-78
2021/12/08 11:53:51;;;;;;;6.65;2.00;;;;;;;;;;5109725;28;20372;-78
2021/12/08 11:56:32;;;;;;;6.50;2.10;;;;;;;;;;5110018;28;20036;-78
2021/12/08 11:58:58;;;;;;;8.38;2.05;;;;;;;;;;5111354;28;20044;-78
2021/12/08 12:01:24;;;;;;;5.45;2.25;;;;;;;;;;5093520;28;20508;-78
2021/12/08 12:03:50;;;;;;;10.88;2.28;;;;;;;;;;5109761;28;20418;-76
2021/12/08 12:06:16;;;;;;;7.53;2.20;;;;;;;;;;5109778;28;20459;-77
2021/12/08 12:08:46;;;;;;;9.43;2.30;;;;;;;;;;5109340;28;20047;-78
2021/12/08 12:11:13;;;;;;;11.32;2.70;;;;;;;;;;5110025;28;20032;-78
2021/12/08 12:13:39;;;;;;;10.52;2.20;;;;;;;;;;5109478;28;20039;-78
2021/12/08 12:16:05;;;;;;;8.02;1.83;;;;;;;;;;5109537;28;20043;-78
2021/12/08 12:18:33;;;;;;;6.95;2.30;;;;;;;;;;5109315;28;20408;-82
2021/12/08 12:21:13;;;;;;;8.38;2.20;;;;;;;;;;5109522;28;20047;-82
2021/12/08 12:23:44;;;;;;;8.40;2.30;;;;;;;;;;5109462;28;20049;-82
2021/12/08 12:26:29;;;;;;;4.72;1.95;;;;;;;;;;5092421;28;20511;-78
2021/12/08 12:29:14;;;;;;;10.48;2.22;;;;;;;;;;5109223;28;20040;-78
2021/12/08 12:31:53;;;;;;;8.80;1.90;;;;;;;;;;5071697;28;20059;-77
2021/12/08 12:34:27;;;;;;;10.38;2.10;;;;;;;;;;5089124;28;20040;-78
2021/12/08 12:36:53;;;;;;;10.18;2.10;;;;;;;;;;5088762;28;20075;-78
2021/12/08 12:39:21;;;;;;;8.00;1.80;;;;;;;;;;5088917;28;20101;-78
2021/12/08 12:41:58;;;;;;;6.95;2.00;;;;;;;;;;5072019;28;20052;-78
2021/12/08 12:44:26;;;;;;;8.55;2.08;;;;;;;;;;5089010;28;20051;-78
2021/12/08 12:47:05;;;;;;;7.30;2.05;;;;;;;;;;5071977;28;20036;-78
2021/12/08 12:49:31;;;;;;;7.25;2.08;;;;;;;;;;5088061;28;20047;-77
2021/12/08 12:52:02;;;;;;;10.55;2.30;;;;;;;;;;5088609;28;20059;-78
2021/12/08 12:54:28;;;;;;;6.90;1.92;;;;;;;;;;5071704;28;20169;-78
2021/12/08 12:56:55;;;;;;;6.13;2.05;;;;;;;;;;5088533;28;20032;-78
2021/12/08 12:59:23;;;;;;;7.75;2.10;;;;;;;;;;5088522;28;20051;-78
2021/12/08 13:02:09;;;;;;;8.68;2.28;;;;;;;;;;5087723;28;20094;-78
2021/12/08 13:04:49;;;;;;;8.82;2.35;;;;;;;;;;5088600;28;20052;-79
2021/12/08 13:07:15;;;;;;;10.90;2.00;;;;;;;;;;5071549;28;20078;-78
2021/12/08 13:09:51;;;;;;;6.15;2.00;;;;;;;;;;5071308;28;20044;-78
2021/12/08 13:12:21;;;;;;;5.20;2.03;;;;;;;;;;5088378;28;20044;-78
2021/12/08 13:14:48;;;;;;;5.88;1.80;;;;;;;;;;5088111;28;20051;-79
2021/12/08 13:17:14;;;;;;;10.20;1.95;;;;;;;;;;5088111;28;20131;-82
2021/12/08 13:19:51;;;;;;;5.82;2.00;;;;;;;;;;5070918;28;20063;-83
2021/12/08 13:22:38;;;;;;;8.13;1.90;;;;;;;;;;5087968;28;20139;-82
2021/12/08 13:25:04;;;;;;;8.30;1.88;;;;;;;;;;5097819;28;20111;-83
2021/12/08 13:27:30;;;;;;;15.52;2.67;;;;;;;;;;5088198;28;20548;-83
2021/12/08 13:30:09;;;;;;;5.28;1.80;;;;;;;;;;5095298;28;20111;-82
2021/12/08 13:32:45;;;;;;;8.02;2.05;;;;;;;;;;5108582;28;20039;-83
2021/12/08 13:35:11;;;;;;;10.10;2.38;;;;;;;;;;5108590;28;20120;-82
2021/12/08 13:37:37;;;;;;;8.63;2.85;;;;;;;;;;5091267;28;20090;-83
2021/12/08 13:40:05;;;;;;;7.80;1.83;;;;;;;;;;5091492;28;20054;-82
2021/12/08 13:42:34;;;;;;;9.48;2.30;;;;;;;;;;5108050;28;20051;-82
2021/12/08 13:45:12;;;;;;;7.70;2.25;;;;;;;;;;5091527;28;20124;-82
2021/12/08 13:47:40;;;;;;;7.47;2.10;;;;;;;;;;5108112;28;20048;-82
2021/12/08 13:50:11;;;;;;;5.97;2.05;;;;;;;;;;5091088;28;20047;-82
2021/12/08 13:52:45;;;;;;;9.65;2.67;;;;;;;;;;5091383;28;20538;-82
2021/12/08 13:55:17;;;;;;;5.68;1.90;;;;;;;;;;5091421;28;20514;-81
2021/12/08 13:57:45;;;;;;;9.68;2.40;;;;;;;;;;5108325;28;20039;-82
2021/12/08 14:00:11;;;;;;;7.82;2.60;;;;;;;;;;5091381;28;20047;-82
2021/12/08 14:02:37;;;;;;;5.15;1.75;;;;;;;;;;5108122;28;20040;-82
2021/12/08 14:05:04;;;;;;;6.65;2.05;;;;;;;;;;5091892;28;20062;-83
2021/12/08 14:07:30;;;;;;;6.32;2.35;;;;;;;;;;5091446;28;20032;-82
2021/12/08 14:09:57;;;;;;;7.93;2.10;;;;;;;;;;5091859;28;20040;-82
2021/12/08 14:12:24;;;;;;;7.68;3.05;;;;;;;;;;5109825;28;20511;-82
2021/12/08 14:14:57;;;;;;;7.10;3.03;;;;;;;;;;5112696;28;20108;-82
2021/12/08 14:17:27;;;;;;;18.85;7.43;;;;;;;;;;5112110;28;20512;-82
2021/12/08 14:19:54;;;;;;;16.75;7.32;;;;;;;;;;5112041;28;20130;-81
2021/12/08 14:22:20;;;;;;;45.38;19.00;;;;;;;;;;5112023;28;20048;-82
2021/12/08 14:24:54;;;;;;;21.70;8.82;;;;;;;;;;5079038;28;20429;-82
2021/12/08 14:27:20;;;;;;;26.73;10.93;;;;;;;;;;5112212;28;20051;-82
2021/12/08 14:29:49;;;;;;;19.63;6.65;;;;;;;;;;5112379;28;20122;-82
2021/12/08 14:32:18;;;;;;;23.50;9.18;;;;;;;;;;5113010;28;20104;-82
2021/12/08 14:34:44;;;;;;;11.70;4.03;;;;;;;;;;5112526;28;20039;-79
2021/12/08 14:37:13;;;;;;;18.13;7.00;;;;;;;;;;5113407;28;20069;-82
2021/12/08 14:39:48;;;;;;;13.93;5.45;;;;;;;;;;5095797;28;20040;-82
2021/12/08 14:42:14;;;;;;;12.88;5.47;;;;;;;;;;5112001;28;20066;-82
2021/12/08 14:44:43;;;;;;;12.88;5.60;;;;;;;;;;5095491;28;20190;-83
2021/12/08 14:47:09;;;;;;;12.27;4.55;;;;;;;;;;5112883;28;20058;-82
2021/12/08 14:49:36;;;;;;;14.50;8.50;;;;;;;;;;5112895;28;20043;-78
2021/12/08 14:52:04;;;;;;;8.05;3.25;;;;;;;;;;5111961;28;20043;-78
2021/12/08 14:54:38;;;;;;;11.15;3.30;;;;;;;;;;5111821;28;20070;-78
2021/12/08 14:57:06;;;;;;;6.50;3.28;;;;;;;;;;5112213;28;20051;-78
2021/12/08 14:59:33;;;;;;;9.82;4.03;;;;;;;;;;5110887;28;20123;-76
2021/12/08 15:01:59;;;;;;;9.80;3.58;;;;;;;;;;5094392;28;20035;-76
2021/12/08 15:04:26;;;;;;;7.55;3.20;;;;;;;;;;5111553;28;20035;-76
2021/12/08 15:06:57;;;;;;;11.35;3.55;;;;;;;;;;5111724;28;20387;-77
2021/12/08 15:09:26;;;;;;;7.93;3.28;;;;;;;;;;5111293;28;20052;-77
2021/12/08 15:11:54;;;;;;;8.27;3.38;;;;;;;;;;5094916;28;20100;-81
2021/12/08 15:14:20;;;;;;;10.27;3.97;;;;;;;;;;5095380;28;20031;-80
2021/12/08 15:16:47;;;;;;;10.55;3.08;;;;;;;;;;5112528;28;20042;-81
2021/12/08 15:19:13;;;;;;;9.38;4.18;;;;;;;;;;5111659;28;20059;-81
2021/12/08 15:21:41;;;;;;;8.02;3.08;;;;;;;;;;5111616;28;20531;-81
2021/12/08 15:24:09;;;;;;;8.82;3.35;;;;;;;;;;5110449;28;20123;-77
2021/12/08 15:26:35;;;;;;;9.30;3.30;;;;;;;;;;5111098;28;20044;-77
2021/12/08 15:29:02;;;;;;;10.27;3.72;;;;;;;;;;5110914;28;20107;-77
2021/12/08 15:31:36;;;;;;;7.38;3.40;;;;;;;;;;5094231;28;20363;-78
2021/12/08 15:34:16;;;;;;;9.13;3.80;;;;;;;;;;5111390;28;20050;-77
2021/12/08 15:36:42;;;;;;;7.95;3.08;;;;;;;;;;5093343;28;20093;-77
2021/12/08 15:39:08;;;;;;;7.25;3.72;;;;;;;;;;5110855;28;20134;-77
2021/12/08 15:41:38;;;;;;;12.75;3.45;;;;;;;;;;5110749;28;20510;-80